Pagrindinis puslapis
METAR-TAF:

METAR-TAF

Oro uostai :

Stokholmas-Arlanda, Švedija

platuma: 59-39N, ilguma: 017-57E, Aukštis: 38 m

Dabartinis oras

Ataskaita buvo paskelbta 22 minutes, ne 03:50 UTC
Vėjas 3 kt iš Vakarų
Temperatūra -10°C
Drėgmė 92%
Slėgis 994 hPa
Matomumas 10 km arba daugiau
Mažai debesys ne aukštis 2300 ft
Su prošvaistėmis ne aukštis 8000 ft

METAR: ESSA 010350Z 26003KT 9999 FEW023 BKN080 M10/M11 Q0994 NOSIG

Laikas: 05:12 (04:12 UTC)

Prognozė

Ataskaita buvo paskelbta 4 valandos ir 42 minutes, ne 23:30 UTC
Prognozė galioja nuo 01 metu 00 UTC su 01 metu 24 UTC
Vėjas 5 kt iš Vakarų/Šiaurės Vakarų
Matomumas 10 km arba daugiau
nėra debesų žemiau 1500 m ir nėra kamuolinių lietaus debesų

TAF: ESSA 302330Z 0100/0124 30005KT CAVOK

Orai ataskaitas ir orų prognozės (METAR, TAF).

turimą stotys yra geltonos ir raudonos taškus žemėlapyje.

Perkelti pele per norėdami pamatyti stoties vardą.

Tada spustelėkite, norėdami matyti oro stebėjimo ir prognozės.

Norėdami pakeisti žemėlapį: spustelėkite ant žalios mygtukų su juodo kryžiaus žemyn,; žalią mygtuką su brūkšneliu, jei norite nutolinti; arba žalių rodyklių gretimoms žemėlapius.


METAR-TAF: